createdAt,value
2017-10-30T00:00:37.616Z,100089.75
2017-10-30T00:03:05.260Z,100094.13
2017-10-30T00:05:32.809Z,100092.55
2017-10-30T00:08:00.314Z,100101.94
2017-10-30T00:10:27.827Z,100100.48
2017-10-30T00:12:55.323Z,100102.75
2017-10-30T00:15:22.829Z,100101.80
2017-10-30T00:17:50.332Z,100101.94
2017-10-30T00:20:17.836Z,100105.39
2017-10-30T00:22:45.316Z,100114.65
2017-10-30T00:25:12.832Z,100122.18
2017-10-30T00:27:40.288Z,100121.77
2017-10-30T00:30:07.744Z,100132.59
2017-10-30T00:32:35.249Z,100143.16
2017-10-30T00:35:02.720Z,100140.66
2017-10-30T00:37:30.196Z,100141.97
2017-10-30T00:39:57.711Z,100149.77
2017-10-30T00:42:25.172Z,100158.52
2017-10-30T00:44:53.692Z,100156.92
2017-10-30T00:47:21.145Z,100157.70
2017-10-30T00:49:48.711Z,100155.19
2017-10-30T00:52:16.172Z,100154.41
2017-10-30T00:54:43.706Z,100156.78
2017-10-30T00:57:12.026Z,100156.51
2017-10-30T00:59:39.716Z,100156.09
2017-10-30T01:02:07.226Z,100165.63
2017-10-30T01:04:34.689Z,100165.63
2017-10-30T01:07:02.486Z,100162.06
2017-10-30T01:09:29.969Z,100162.70
2017-10-30T01:11:57.424Z,100163.64
2017-10-30T01:14:24.922Z,100162.59
2017-10-30T01:16:52.382Z,100161.00
2017-10-30T01:19:19.880Z,100167.97
2017-10-30T01:21:47.352Z,100163.35
2017-10-30T01:24:14.882Z,100174.83
2017-10-30T01:26:42.409Z,100164.39
2017-10-30T01:29:09.937Z,100173.13
2017-10-30T01:31:37.494Z,100181.30
2017-10-30T01:34:04.996Z,100178.02
2017-10-30T01:36:33.166Z,100185.15
2017-10-30T01:39:03.107Z,100179.64
2017-10-30T01:41:31.176Z,100182.67
2017-10-30T01:43:58.979Z,100181.35
2017-10-30T01:46:26.434Z,100179.66
2017-10-30T01:48:54.252Z,100177.26
2017-10-30T01:51:21.732Z,100175.80
2017-10-30T01:53:49.245Z,100172.91
2017-10-30T01:56:16.732Z,100182.44
2017-10-30T01:58:44.199Z,100185.86
2017-10-30T02:01:11.668Z,100185.85
2017-10-30T02:03:39.142Z,100184.81
2017-10-30T02:06:06.603Z,100187.17
2017-10-30T02:08:34.128Z,100188.89
2017-10-30T02:11:01.605Z,100195.09
2017-10-30T02:13:29.092Z,100191.00
2017-10-30T02:15:56.644Z,100201.59
2017-10-30T02:18:24.107Z,100202.51
2017-10-30T02:20:51.607Z,100197.63
2017-10-30T02:23:19.111Z,100197.63
2017-10-30T02:25:46.626Z,100198.41
2017-10-30T02:28:14.092Z,100197.22
2017-10-30T02:30:41.610Z,100209.66
2017-10-30T02:33:09.584Z,100206.87
2017-10-30T02:35:37.306Z,100216.13
2017-10-30T02:38:06.816Z,100210.70
2017-10-30T02:40:35.087Z,100214.02
2017-10-30T02:43:02.608Z,100220.36
2017-10-30T02:45:30.078Z,100216.54
2017-10-30T02:47:57.601Z,100217.45
2017-10-30T02:50:25.110Z,100218.62
2017-10-30T02:52:52.595Z,100223.51
2017-10-30T02:55:20.100Z,100230.93
2017-10-30T02:57:47.586Z,100227.48
2017-10-30T03:00:15.048Z,100230.80
2017-10-30T03:02:42.518Z,100240.96
2017-10-30T03:05:10.005Z,100242.41
2017-10-30T03:07:37.600Z,100239.50
2017-10-30T03:10:05.077Z,100242.67
2017-10-30T03:12:32.544Z,100241.88
2017-10-30T03:15:00.050Z,100244.27
2017-10-30T03:17:32.543Z,100242.81
2017-10-30T03:20:00.040Z,100242.94
2017-10-30T03:22:27.516Z,100244.63
2017-10-30T03:24:55.022Z,100246.34
2017-10-30T03:27:22.507Z,100253.47
2017-10-30T03:29:50.094Z,100249.78
2017-10-30T03:32:17.609Z,100255.81
2017-10-30T03:34:45.091Z,100259.64
2017-10-30T03:37:12.618Z,100265.83
2017-10-30T03:39:40.111Z,100267.42
2017-10-30T03:42:07.559Z,100268.88
2017-10-30T03:44:35.067Z,100276.40
2017-10-30T03:47:02.574Z,100276.66
2017-10-30T03:49:30.084Z,100276.28
2017-10-30T03:51:57.605Z,100283.11
2017-10-30T03:54:25.872Z,100288.93
2017-10-30T03:56:53.334Z,100295.13
2017-10-30T03:59:21.088Z,100293.94
2017-10-30T04:01:48.605Z,100296.06
2017-10-30T04:04:16.089Z,100307.70
2017-10-30T04:06:43.630Z,100307.42
2017-10-30T04:09:12.015Z,100303.58
2017-10-30T04:11:39.507Z,100305.03
2017-10-30T04:14:07.017Z,100313.09
2017-10-30T04:16:34.502Z,100307.11
2017-10-30T04:19:01.962Z,100310.55
2017-10-30T04:21:29.479Z,100310.80
2017-10-30T04:23:57.017Z,100316.08
2017-10-30T04:26:24.506Z,100320.58
2017-10-30T04:28:52.079Z,100328.78
2017-10-30T04:31:19.547Z,100333.37
2017-10-30T04:33:47.026Z,100339.19
2017-10-30T04:36:14.591Z,100337.72
2017-10-30T04:38:42.069Z,100337.98
2017-10-30T04:41:09.547Z,100342.59
2017-10-30T04:43:37.053Z,100346.07
2017-10-30T04:46:09.651Z,100348.86
2017-10-30T04:48:37.145Z,100349.90
2017-10-30T04:51:04.644Z,100351.25
2017-10-30T04:53:32.158Z,100350.84
2017-10-30T04:55:59.646Z,100358.49
2017-10-30T04:58:27.163Z,100364.95
2017-10-30T05:00:54.708Z,100362.84
2017-10-30T05:03:22.213Z,100363.38
2017-10-30T05:05:49.927Z,100362.55
2017-10-30T05:08:17.433Z,100359.55
2017-10-30T05:10:44.958Z,100362.27
2017-10-30T05:13:12.442Z,100374.28
2017-10-30T05:15:39.952Z,100371.91
2017-10-30T05:18:07.418Z,100378.53
2017-10-30T05:20:35.834Z,100378.41
2017-10-30T05:23:03.420Z,100384.08
2017-10-30T05:25:30.909Z,100383.19
2017-10-30T05:27:58.371Z,100384.62
2017-10-30T05:30:26.774Z,100388.59
2017-10-30T05:32:54.230Z,100389.66
2017-10-30T05:35:21.726Z,100398.06
2017-10-30T05:37:49.271Z,100401.36
2017-10-30T05:40:16.771Z,100401.63
2017-10-30T05:42:44.268Z,100410.02
2017-10-30T05:45:11.752Z,100414.55
2017-10-30T05:47:39.258Z,100417.45
2017-10-30T05:50:06.723Z,100424.05
2017-10-30T05:52:34.219Z,100424.98
2017-10-30T05:55:01.801Z,100435.67
2017-10-30T05:57:30.319Z,100434.35
2017-10-30T05:59:57.855Z,100429.83
2017-10-30T06:02:25.381Z,100438.93
2017-10-30T06:04:52.850Z,100445.72
2017-10-30T06:07:20.344Z,100450.86
2017-10-30T06:09:47.821Z,100456.95
2017-10-30T06:12:15.309Z,100460.94
2017-10-30T06:14:42.801Z,100463.30
2017-10-30T06:17:11.196Z,100466.30
2017-10-30T06:19:39.666Z,100477.53
2017-10-30T06:22:09.725Z,100478.72
2017-10-30T06:24:37.273Z,100478.70
2017-10-30T06:27:04.902Z,100489.28
2017-10-30T06:29:32.424Z,100490.50
2017-10-30T06:32:00.846Z,100500.30
2017-10-30T06:34:28.465Z,100506.50
2017-10-30T06:36:56.059Z,100507.95
2017-10-30T06:39:23.627Z,100510.46
2017-10-30T06:41:51.280Z,100510.62
2017-10-30T06:44:19.169Z,100513.12
2017-10-30T06:46:47.387Z,100528.05
2017-10-30T06:49:14.921Z,100522.78
2017-10-30T06:51:42.460Z,100522.95
2017-10-30T06:54:10.082Z,100527.30
2017-10-30T06:56:37.758Z,100531.37
2017-10-30T06:59:05.352Z,100533.20
2017-10-30T07:01:32.930Z,100539.17
2017-10-30T07:04:00.525Z,100549.30
2017-10-30T07:06:28.333Z,100563.27
2017-10-30T07:09:01.203Z,100573.44
2017-10-30T07:11:29.065Z,100572.21
2017-10-30T07:13:56.895Z,100575.10
2017-10-30T07:16:25.354Z,100578.59
2017-10-30T07:18:52.968Z,100579.96
2017-10-30T07:21:20.521Z,100584.15
2017-10-30T07:23:49.153Z,100586.89
2017-10-30T07:26:16.752Z,100596.02
2017-10-30T07:28:44.414Z,100597.18
2017-10-30T07:31:12.066Z,100593.88
2017-10-30T07:33:39.626Z,100603.98
2017-10-30T07:36:07.245Z,100609.13
2017-10-30T07:38:34.901Z,100611.84
2017-10-30T07:41:02.439Z,100612.25
2017-10-30T07:43:30.047Z,100614.52
2017-10-30T07:45:57.736Z,100627.48
2017-10-30T07:48:25.510Z,100623.33
2017-10-30T07:50:53.886Z,100619.70
2017-10-30T07:53:21.622Z,100626.07
2017-10-30T07:55:50.146Z,100617.38
2017-10-30T07:58:17.734Z,100622.81
2017-10-30T08:00:45.271Z,100625.86
2017-10-30T08:03:13.606Z,100628.55
2017-10-30T08:05:41.211Z,100629.06
2017-10-30T08:08:08.758Z,100638.30
2017-10-30T08:10:36.240Z,100635.55
2017-10-30T08:13:03.792Z,100639.00
2017-10-30T08:15:31.275Z,100646.44
2017-10-30T08:17:58.921Z,100643.54
2017-10-30T08:20:26.455Z,100647.53
2017-10-30T08:22:54.003Z,100648.57
2017-10-30T08:25:21.496Z,100649.00
2017-10-30T08:27:49.080Z,100658.39
2017-10-30T08:30:16.672Z,100651.89
2017-10-30T08:32:44.271Z,100656.34
2017-10-30T08:35:11.789Z,100655.78
2017-10-30T08:37:39.310Z,100659.06
2017-10-30T08:40:06.856Z,100655.66
2017-10-30T08:42:34.364Z,100661.43
2017-10-30T08:45:01.929Z,100673.08
2017-10-30T08:47:29.542Z,100676.41
2017-10-30T08:49:57.167Z,100679.59
2017-10-30T08:52:25.877Z,100673.12
2017-10-30T08:54:53.561Z,100676.88
2017-10-30T08:57:21.029Z,100681.94
2017-10-30T08:59:48.506Z,100697.61
2017-10-30T09:02:16.217Z,100694.18
2017-10-30T09:04:43.859Z,100695.39
2017-10-30T09:07:11.353Z,100694.24
2017-10-30T09:09:38.903Z,100697.84
2017-10-30T09:12:06.412Z,100702.22
2017-10-30T09:14:33.888Z,100696.16
2017-10-30T09:17:01.400Z,100698.03
2017-10-30T09:19:29.010Z,100698.17
2017-10-30T09:21:56.615Z,100702.98
2017-10-30T09:24:24.233Z,100702.88
2017-10-30T09:26:56.830Z,100707.64
2017-10-30T09:29:24.417Z,100703.88
2017-10-30T09:31:51.992Z,100713.89
2017-10-30T09:34:19.531Z,100709.52
2017-10-30T09:36:52.964Z,100718.01
2017-10-30T09:39:20.925Z,100720.30
2017-10-30T09:41:48.475Z,100726.86
2017-10-30T09:44:16.256Z,100731.11
2017-10-30T09:46:43.892Z,100733.30
2017-10-30T09:49:11.469Z,100732.22
2017-10-30T09:51:39.086Z,100738.44
2017-10-30T09:54:06.725Z,100738.59
2017-10-30T09:56:34.365Z,100741.53
2017-10-30T09:59:02.024Z,100742.66
2017-10-30T10:01:29.738Z,100738.70
2017-10-30T10:03:57.441Z,100747.93
2017-10-30T10:06:25.007Z,100742.77
2017-10-30T10:08:52.557Z,100754.77
2017-10-30T10:11:20.081Z,100753.73
2017-10-30T10:13:47.586Z,100757.31
2017-10-30T10:16:15.113Z,100754.79
2017-10-30T10:18:42.691Z,100762.25
2017-10-30T10:21:10.385Z,100761.98
2017-10-30T10:23:38.056Z,100755.97
2017-10-30T10:26:05.784Z,100765.68
2017-10-30T10:28:37.312Z,100766.33
2017-10-30T10:31:04.913Z,100767.14
2017-10-30T10:33:35.197Z,100764.95
2017-10-30T10:36:02.861Z,100753.87
2017-10-30T10:38:30.524Z,100760.42
2017-10-30T10:40:58.153Z,100761.10
2017-10-30T10:43:25.697Z,100755.50
2017-10-30T10:45:54.333Z,100770.65
2017-10-30T10:48:22.020Z,100763.65
2017-10-30T10:50:49.800Z,100758.00
2017-10-30T10:53:17.491Z,100752.31
2017-10-30T10:55:45.053Z,100758.42
2017-10-30T10:58:12.804Z,100755.45
2017-10-30T11:00:40.364Z,100764.96
2017-10-30T11:03:07.898Z,100755.47
2017-10-30T11:05:35.456Z,100758.94
2017-10-30T11:08:03.082Z,100764.67
2017-10-30T11:10:30.639Z,100775.72
2017-10-30T11:12:58.231Z,100766.43
2017-10-30T11:15:25.753Z,100765.45
2017-10-30T11:17:53.683Z,100768.50
2017-10-30T11:20:21.175Z,100767.62
2017-10-30T11:22:49.069Z,100764.84
2017-10-30T11:25:16.610Z,100770.16
2017-10-30T11:27:44.167Z,100775.59
2017-10-30T11:30:11.808Z,100783.09
2017-10-30T11:35:14.231Z,100785.13
2017-10-30T11:37:41.886Z,100787.70
2017-10-30T11:40:10.136Z,100784.59
2017-10-30T11:42:37.875Z,100786.70
2017-10-30T11:45:05.941Z,100790.73
2017-10-30T11:47:33.794Z,100793.70
2017-10-30T11:50:01.685Z,100792.53
2017-10-30T11:52:29.263Z,100789.46
2017-10-30T11:54:56.967Z,100786.39
2017-10-30T11:57:24.851Z,100785.61
2017-10-30T11:59:52.859Z,100796.50
2017-10-30T12:02:20.974Z,100794.48
2017-10-30T12:07:21.447Z,100795.02
2017-10-30T12:09:49.064Z,100786.80
2017-10-30T12:12:16.824Z,100785.98
2017-10-30T12:14:44.537Z,100783.61
2017-10-30T12:17:12.164Z,100796.07
2017-10-30T12:19:39.651Z,100793.11
2017-10-30T12:22:07.273Z,100804.57
2017-10-30T12:24:35.858Z,100802.09
2017-10-30T12:27:03.643Z,100794.68
2017-10-30T12:29:32.146Z,100798.47
2017-10-30T12:31:59.778Z,100789.38
2017-10-30T12:34:27.308Z,100798.52
2017-10-30T12:36:54.838Z,100801.25
2017-10-30T12:39:22.387Z,100802.19
2017-10-30T12:41:49.916Z,100808.36
2017-10-30T12:44:17.421Z,100809.22
2017-10-30T12:46:45.111Z,100811.22
2017-10-30T12:49:12.730Z,100802.34
2017-10-30T12:51:40.330Z,100806.17
2017-10-30T12:54:08.501Z,100814.13
2017-10-30T12:56:36.114Z,100817.58
2017-10-30T12:59:03.649Z,100813.32
2017-10-30T13:01:31.382Z,100817.37
2017-10-30T13:03:59.193Z,100828.21
2017-10-30T13:06:26.709Z,100829.91
2017-10-30T13:08:54.216Z,100829.08
2017-10-30T13:11:21.792Z,100825.38
2017-10-30T13:13:49.365Z,100831.78
2017-10-30T13:16:16.874Z,100830.53
2017-10-30T13:18:44.448Z,100829.56
2017-10-30T13:21:11.946Z,100827.84
2017-10-30T13:23:39.515Z,100832.02
2017-10-30T13:26:06.985Z,100834.97
2017-10-30T13:28:34.538Z,100840.14
2017-10-30T13:31:02.044Z,100841.00
2017-10-30T13:33:29.567Z,100843.81
2017-10-30T13:35:57.158Z,100846.48
2017-10-30T13:38:24.719Z,100845.45
2017-10-30T13:40:52.205Z,100843.29
2017-10-30T13:43:19.727Z,100843.17
2017-10-30T13:45:47.258Z,100845.88
2017-10-30T13:48:15.447Z,100850.37
2017-10-30T13:50:43.986Z,100848.27
2017-10-30T13:53:11.541Z,100841.83
2017-10-30T13:55:39.139Z,100844.03
2017-10-30T13:58:06.652Z,100846.55
2017-10-30T14:00:34.181Z,100861.03
2017-10-30T14:03:01.703Z,100857.64
2017-10-30T14:05:29.241Z,100869.19
2017-10-30T14:07:56.791Z,100869.47
2017-10-30T14:10:25.226Z,100871.97
2017-10-30T14:12:52.695Z,100875.17
2017-10-30T14:15:20.178Z,100880.47
2017-10-30T14:17:48.300Z,100869.98
2017-10-30T14:20:15.796Z,100865.61
2017-10-30T14:22:43.337Z,100866.53
2017-10-30T14:25:10.807Z,100865.06
2017-10-30T14:27:38.343Z,100868.64
2017-10-30T14:30:05.875Z,100869.05
2017-10-30T14:32:33.433Z,100866.66
2017-10-30T14:35:01.053Z,100875.16
2017-10-30T14:37:28.645Z,100879.13
2017-10-30T14:39:56.127Z,100879.78
2017-10-30T14:42:24.121Z,100885.75
2017-10-30T14:44:52.371Z,100892.75
2017-10-30T14:47:19.950Z,100893.16
2017-10-30T14:49:47.468Z,100892.09
2017-10-30T14:52:15.061Z,100904.15
2017-10-30T14:54:42.621Z,100904.01
2017-10-30T14:57:10.130Z,100906.94
2017-10-30T14:59:37.637Z,100907.34
2017-10-30T15:02:05.182Z,100907.84
2017-10-30T15:04:32.701Z,100911.43
2017-10-30T15:07:00.303Z,100901.06
2017-10-30T15:09:27.827Z,100909.13
2017-10-30T15:11:55.742Z,100911.00
2017-10-30T15:14:23.474Z,100915.75
2017-10-30T15:16:50.953Z,100916.02
2017-10-30T15:19:18.448Z,100919.70
2017-10-30T15:21:46.070Z,100925.03
2017-10-30T15:24:13.536Z,100922.77
2017-10-30T15:26:41.045Z,100919.42
2017-10-30T15:29:08.516Z,100924.34
2017-10-30T15:31:36.072Z,100919.92
2017-10-30T15:34:03.548Z,100923.38
2017-10-30T15:36:36.085Z,100923.86
2017-10-30T15:39:03.667Z,100925.86
2017-10-30T15:41:31.323Z,100926.77
2017-10-30T15:43:58.836Z,100932.59
2017-10-30T15:46:26.328Z,100937.67
2017-10-30T15:48:53.856Z,100933.14
2017-10-30T15:51:21.352Z,100937.23
2017-10-30T15:53:48.909Z,100936.02
2017-10-30T15:56:16.552Z,100947.52
2017-10-30T15:58:44.070Z,100953.88
2017-10-30T16:01:11.609Z,100956.61
2017-10-30T16:03:39.228Z,100959.37
2017-10-30T16:06:06.687Z,100959.23
2017-10-30T16:08:34.198Z,100970.52
2017-10-30T16:11:01.660Z,100975.27
2017-10-30T16:13:29.188Z,100973.27
2017-10-30T16:15:56.729Z,100978.41
2017-10-30T16:18:24.201Z,100976.30
2017-10-30T16:20:51.711Z,100980.00
2017-10-30T16:23:19.375Z,100980.89
2017-10-30T16:25:47.849Z,100980.75
2017-10-30T16:28:15.341Z,100976.22
2017-10-30T16:30:42.839Z,100978.17
2017-10-30T16:33:10.369Z,100975.91
2017-10-30T16:35:38.911Z,100976.53
2017-10-30T16:38:06.582Z,100981.58
2017-10-30T16:40:34.251Z,100986.45
2017-10-30T16:43:01.812Z,101001.94
2017-10-30T16:45:29.371Z,101002.48
2017-10-30T16:47:56.888Z,101001.54
2017-10-30T16:50:24.366Z,101004.36
2017-10-30T16:52:51.873Z,101009.48
2017-10-30T16:55:19.493Z,101005.48
2017-10-30T16:57:47.052Z,101008.88
2017-10-30T17:00:14.624Z,101013.36
2017-10-30T17:02:42.140Z,101013.05
2017-10-30T17:05:09.669Z,101019.64
2017-10-30T17:07:37.226Z,101012.97
2017-10-30T17:10:04.802Z,101019.44
2017-10-30T17:12:32.322Z,101023.09
2017-10-30T17:14:59.863Z,101022.97
2017-10-30T17:17:27.392Z,101032.15
2017-10-30T17:19:54.925Z,101029.13
2017-10-30T17:22:22.495Z,101033.88
2017-10-30T17:24:49.981Z,101039.78
2017-10-30T17:27:17.500Z,101039.25
2017-10-30T17:29:45.171Z,101037.48
2017-10-30T17:32:12.949Z,101043.22
2017-10-30T17:34:40.428Z,101040.59
2017-10-30T17:37:08.044Z,101038.64
2017-10-30T17:39:35.558Z,101037.19
2017-10-30T17:42:03.146Z,101041.42
2017-10-30T17:44:31.487Z,101035.55
2017-10-30T17:46:59.250Z,101046.52
2017-10-30T17:49:26.881Z,101040.82
2017-10-30T17:51:54.536Z,101048.52
2017-10-30T17:54:22.068Z,101045.61
2017-10-30T17:56:49.592Z,101044.70
2017-10-30T17:59:17.182Z,101034.64
2017-10-30T18:01:44.971Z,101039.75
2017-10-30T18:04:12.522Z,101048.10
2017-10-30T18:06:40.073Z,101051.69
2017-10-30T18:09:07.729Z,101057.78
2017-10-30T18:11:35.276Z,101057.53
2017-10-30T18:14:02.831Z,101053.40
2017-10-30T18:16:30.438Z,101058.34
2017-10-30T18:18:58.024Z,101058.34
2017-10-30T18:21:25.616Z,101056.11
2017-10-30T18:23:53.246Z,101066.83
2017-10-30T18:26:20.956Z,101066.20
2017-10-30T18:28:48.757Z,101068.63
2017-10-30T18:31:16.289Z,101068.91
2017-10-30T18:33:43.935Z,101067.30
2017-10-30T18:36:11.466Z,101068.50
2017-10-30T18:38:40.586Z,101064.36
2017-10-30T18:41:09.281Z,101069.00
2017-10-30T18:43:36.786Z,101072.03
2017-10-30T18:46:04.362Z,101076.66
2017-10-30T18:48:31.957Z,101073.32
2017-10-30T18:50:59.492Z,101075.84
2017-10-30T18:53:26.981Z,101076.63
2017-10-30T18:55:54.552Z,101080.33
2017-10-30T18:58:22.086Z,101080.83
2017-10-30T19:00:49.645Z,101079.22
2017-10-30T19:03:17.279Z,101079.56
2017-10-30T19:05:44.842Z,101082.12
2017-10-30T19:08:12.474Z,101079.28
2017-10-30T19:10:40.017Z,101083.59
2017-10-30T19:13:07.565Z,101089.27
2017-10-30T19:15:35.054Z,101092.83
2017-10-30T19:18:02.832Z,101089.68
2017-10-30T19:20:30.481Z,101096.68
2017-10-30T19:22:58.256Z,101087.28
2017-10-30T19:25:25.858Z,101093.97
2017-10-30T19:27:53.440Z,101099.92
2017-10-30T19:30:21.050Z,101099.92
2017-10-30T19:32:48.673Z,101104.77
2017-10-30T19:35:16.198Z,101105.15
2017-10-30T19:37:43.897Z,101104.65
2017-10-30T19:40:11.429Z,101110.06
2017-10-30T19:42:38.974Z,101106.26
2017-10-30T19:45:06.498Z,101106.80
2017-10-30T19:47:34.340Z,101107.13
2017-10-30T19:50:01.865Z,101113.94
2017-10-30T19:52:29.380Z,101113.48
2017-10-30T19:54:56.960Z,101108.91
2017-10-30T19:57:24.507Z,101114.38
2017-10-30T19:59:52.064Z,101112.06
2017-10-30T20:02:19.560Z,101105.00
2017-10-30T20:04:47.109Z,101109.80
2017-10-30T20:10:16.410Z,101118.73
2017-10-30T20:12:43.956Z,101120.16
2017-10-30T20:15:11.859Z,101121.84
2017-10-30T20:17:39.503Z,101124.98
2017-10-30T20:20:07.166Z,101126.89
2017-10-30T20:22:34.716Z,101131.11
2017-10-30T20:25:02.198Z,101135.03
2017-10-30T20:27:29.722Z,101134.45
2017-10-30T20:29:57.208Z,101136.97
2017-10-30T20:32:24.916Z,101140.12
2017-10-30T20:34:52.421Z,101143.68
2017-10-30T20:37:19.964Z,101142.72
2017-10-30T20:39:47.679Z,101141.52
2017-10-30T20:42:15.533Z,101151.06
2017-10-30T20:44:43.073Z,101149.50
2017-10-30T20:47:10.613Z,101153.05
2017-10-30T20:49:38.678Z,101155.82
2017-10-30T20:52:06.311Z,101156.93
2017-10-30T20:54:34.013Z,101157.55
2017-10-30T20:57:01.690Z,101158.38
2017-10-30T20:59:29.187Z,101157.77
2017-10-30T21:01:56.798Z,101157.77
2017-10-30T21:04:24.374Z,101159.70
2017-10-30T21:06:51.880Z,101164.62
2017-10-30T21:09:19.429Z,101164.34
2017-10-30T21:11:46.937Z,101158.27
2017-10-30T21:14:14.526Z,101156.69
2017-10-30T21:16:42.062Z,101152.59
2017-10-30T21:19:09.677Z,101157.06
2017-10-30T21:21:37.266Z,101150.98
2017-10-30T21:24:04.864Z,101151.44
2017-10-30T21:26:32.581Z,101150.70
2017-10-30T21:29:01.184Z,101146.81
2017-10-30T21:31:28.730Z,101145.49
2017-10-30T21:33:56.414Z,101151.02
2017-10-30T21:36:24.057Z,101151.65
2017-10-30T21:38:51.829Z,101150.45
2017-10-30T21:41:19.395Z,101145.03
2017-10-30T21:43:46.938Z,101153.30
2017-10-30T21:46:14.573Z,101152.50
2017-10-30T21:48:42.143Z,101153.58
2017-10-30T21:51:09.760Z,101153.38
2017-10-30T21:53:38.188Z,101156.38
2017-10-30T21:56:06.960Z,101152.78
2017-10-30T21:58:34.864Z,101157.23
2017-10-30T22:01:04.409Z,101156.66
2017-10-30T22:03:32.164Z,101156.78
2017-10-30T22:05:59.837Z,101156.90
2017-10-30T22:08:27.424Z,101157.62
2017-10-30T22:10:55.088Z,101155.05
2017-10-30T22:13:23.853Z,101162.45
2017-10-30T22:15:52.347Z,101150.27
2017-10-30T22:18:23.280Z,101152.08
2017-10-30T22:20:55.489Z,101153.11
2017-10-30T22:23:23.301Z,101154.50
2017-10-30T22:25:50.799Z,101152.36
2017-10-30T22:28:19.951Z,101147.08
2017-10-30T22:30:47.948Z,101146.89
2017-10-30T22:33:16.280Z,101145.83
2017-10-30T22:35:44.602Z,101148.09
2017-10-30T22:38:12.277Z,101145.20
2017-10-30T22:40:39.753Z,101140.25
2017-10-30T22:43:07.604Z,101150.70
2017-10-30T22:45:35.153Z,101152.27
2017-10-30T22:48:06.899Z,101151.69
2017-10-30T22:50:34.677Z,101163.08
2017-10-30T22:53:02.422Z,101163.63
2017-10-30T22:55:29.987Z,101163.58
2017-10-30T22:57:57.460Z,101164.39
2017-10-30T23:00:26.231Z,101165.04
2017-10-30T23:02:53.959Z,101157.29
2017-10-30T23:05:22.263Z,101160.72
2017-10-30T23:07:50.276Z,101161.01
2017-10-30T23:10:17.824Z,101161.59
2017-10-30T23:12:45.296Z,101157.83
2017-10-30T23:15:12.823Z,101162.81
2017-10-30T23:17:40.559Z,101159.98
2017-10-30T23:20:08.291Z,101157.78
2017-10-30T23:22:35.950Z,101159.98
2017-10-30T23:25:03.477Z,101157.22
2017-10-30T23:27:32.540Z,101160.14
2017-10-30T23:30:01.686Z,101159.34
2017-10-30T23:32:29.198Z,101159.47
2017-10-30T23:34:57.094Z,101169.25
2017-10-30T23:37:25.901Z,101173.30
2017-10-30T23:39:53.668Z,101171.66
2017-10-30T23:42:21.465Z,101171.66
2017-10-30T23:44:49.073Z,101166.77
2017-10-30T23:47:16.786Z,101171.13
2017-10-30T23:49:45.729Z,101161.67
2017-10-30T23:52:13.520Z,101166.77
2017-10-30T23:54:41.109Z,101160.30
2017-10-30T23:57:08.614Z,101160.59
2017-10-30T23:59:36.135Z,101165.01
